Time;durP1;ratioP1;P1;durP2;ratioP2;P2;SDS_P1;SDS_P2;PMS_P1;PMS_P2;Temp;Humidity;BMP_temperature;BMP_pressure;BME280_temperature;BME280_humidity;BME280_pressure;Samples;Min_cycle;Max_cycle;Signal;HPM_P1;HPM_P2
2021/03/19 00:01:24;;;;;;;5.25;2.63;;;2.60;77.70;;;;;;5050320;28;20025;-68
2021/03/19 00:03:50;;;;;;;6.75;2.45;;;2.60;77.50;;;;;;5050418;28;20044;-68
2021/03/19 00:06:15;;;;;;;4.60;2.53;;;2.50;77.70;;;;;;5050074;28;20029;-68
2021/03/19 00:08:41;;;;;;;7.15;2.22;;;2.50;77.70;;;;;;5048114;28;20667;-68
2021/03/19 00:11:07;;;;;;;5.57;3.08;;;2.50;77.90;;;;;;5049542;28;20539;-68
2021/03/19 00:13:32;;;;;;;6.20;2.65;;;2.50;78.10;;;;;;5049439;28;20029;-68
2021/03/19 00:15:58;;;;;;;5.30;1.92;;;2.50;78.20;;;;;;5050170;28;20078;-68
2021/03/19 00:18:24;;;;;;;6.07;2.53;;;2.50;78.60;;;;;;5049398;28;20033;-68
2021/03/19 00:20:50;;;;;;;4.53;2.40;;;2.50;78.50;;;;;;5049143;28;20475;-68
2021/03/19 00:23:16;;;;;;;5.75;2.85;;;2.40;78.50;;;;;;5050143;28;20508;-68
2021/03/19 00:25:43;;;;;;;4.05;1.90;;;2.40;78.60;;;;;;5049171;28;20061;-68
2021/03/19 00:28:14;;;;;;;4.60;2.08;;;2.40;78.60;;;;;;5049265;28;20102;-68
2021/03/19 00:30:42;;;;;;;6.68;2.70;;;2.40;78.80;;;;;;5034228;28;20119;-68
2021/03/19 00:33:08;;;;;;;7.47;2.30;;;2.40;79.50;;;;;;5047201;28;20041;-68
2021/03/19 00:35:34;;;;;;;5.22;2.30;;;2.40;79.40;;;;;;5049568;28;20036;-68
2021/03/19 00:38:00;;;;;;;5.47;2.17;;;2.40;79.70;;;;;;5048123;28;20032;-68
2021/03/19 00:40:25;;;;;;;6.93;2.20;;;2.40;79.40;;;;;;5048821;28;20112;-68
2021/03/19 00:42:51;;;;;;;3.90;2.22;;;2.40;79.70;;;;;;5049888;28;20029;-68
2021/03/19 00:45:17;;;;;;;6.63;3.08;;;2.40;79.70;;;;;;5047794;28;20047;-69
2021/03/19 00:47:43;;;;;;;3.20;1.77;;;2.40;79.90;;;;;;5030972;28;20376;-68
2021/03/19 00:50:13;;;;;;;3.25;2.10;;;2.30;80.30;;;;;;5048164;28;20068;-68
2021/03/19 00:52:39;;;;;;;3.38;1.90;;;2.30;80.30;;;;;;5048699;28;20037;-68
2021/03/19 00:55:07;;;;;;;2.40;1.67;;;2.30;80.10;;;;;;5049569;28;20029;-68
2021/03/19 00:57:33;;;;;;;7.80;2.22;;;2.30;80.10;;;;;;5048891;28;20616;-68
2021/03/19 00:59:59;;;;;;;3.08;1.90;;;2.30;80.40;;;;;;5050347;28;20139;-68
2021/03/19 01:02:25;;;;;;;3.08;1.75;;;2.30;80.10;;;;;;5049117;28;20032;-68
2021/03/19 01:04:51;;;;;;;2.95;2.10;;;2.30;80.30;;;;;;5047735;28;20029;-68
2021/03/19 01:07:17;;;;;;;5.97;2.03;;;2.30;80.20;;;;;;5048868;28;20492;-68
2021/03/19 01:09:43;;;;;;;5.38;1.90;;;2.30;80.50;;;;;;5048566;28;20119;-68
2021/03/19 01:12:08;;;;;;;3.88;1.83;;;2.20;80.30;;;;;;5048894;28;20029;-68
2021/03/19 01:14:34;;;;;;;4.03;1.60;;;2.20;80.50;;;;;;5048341;28;20031;-68
2021/03/19 01:17:00;;;;;;;5.30;2.55;;;2.20;80.70;;;;;;5049002;28;20051;-68
2021/03/19 01:19:26;;;;;;;4.53;2.10;;;2.20;80.70;;;;;;5048945;28;20401;-66
2021/03/19 01:21:51;;;;;;;3.80;1.80;;;2.20;81.00;;;;;;5047793;28;20033;-66
2021/03/19 01:24:17;;;;;;;5.47;2.33;;;2.20;80.90;;;;;;5048264;28;20041;-66
2021/03/19 01:26:43;;;;;;;6.57;1.80;;;2.20;80.90;;;;;;5048590;28;20024;-68
2021/03/19 01:29:08;;;;;;;4.72;1.77;;;2.20;80.80;;;;;;5049278;28;20029;-68
2021/03/19 01:31:34;;;;;;;3.60;2.13;;;2.20;80.80;;;;;;5049063;28;20497;-68
2021/03/19 01:34:00;;;;;;;8.00;1.80;;;2.20;80.80;;;;;;5048843;28;20512;-68
2021/03/19 01:36:27;;;;;;;4.32;1.70;;;2.20;80.80;;;;;;5047979;28;20029;-68
2021/03/19 01:38:54;;;;;;;3.17;1.65;;;2.20;80.90;;;;;;5045128;28;20029;-68
2021/03/19 01:41:19;;;;;;;3.58;1.70;;;2.20;80.70;;;;;;5048359;28;20025;-68
2021/03/19 01:43:52;;;;;;;6.63;2.40;;;2.10;80.90;;;;;;5048977;28;20095;-68
2021/03/19 01:47:15;;;;;;;3.05;1.60;;;2.10;81.30;;;;;;5046715;28;20112;-68
2021/03/19 01:50:18;;;;;;;5.60;1.60;;;2.10;81.50;;;;;;4970614;28;20133;-68
2021/03/19 01:53:21;;;;;;;4.43;1.60;;;2.10;81.30;;;;;;4986338;28;20034;-68
2021/03/19 01:56:23;;;;;;;4.55;1.77;;;2.10;81.40;;;;;;5048343;28;20037;-68
2021/03/19 01:59:27;;;;;;;6.93;1.73;;;2.00;81.20;;;;;;5052170;28;20037;-68
2021/03/19 02:02:30;;;;;;;5.88;1.70;;;2.00;81.20;;;;;;5052246;28;20051;-68
2021/03/19 02:05:33;;;;;;;5.28;1.98;;;2.00;81.50;;;;;;5052992;28;20059;-68
2021/03/19 02:08:36;;;;;;;4.45;1.90;;;2.00;81.40;;;;;;5051855;28;20183;-68
2021/03/19 02:11:39;;;;;;;3.05;1.35;;;2.00;81.40;;;;;;5052288;28;20048;-68
2021/03/19 02:14:42;;;;;;;3.60;1.70;;;2.00;81.50;;;;;;5052193;28;20025;-68
2021/03/19 02:17:48;;;;;;;3.55;2.10;;;2.00;81.70;;;;;;5051993;28;20391;-68
2021/03/19 02:20:52;;;;;;;3.53;1.60;;;1.90;81.60;;;;;;5051595;28;20036;-68
2021/03/19 02:23:55;;;;;;;5.40;2.03;;;1.90;81.50;;;;;;5052496;28;20017;-68
2021/03/19 02:26:58;;;;;;;4.30;1.95;;;1.90;81.60;;;;;;5051487;28;20163;-68
2021/03/19 02:30:01;;;;;;;4.03;1.75;;;1.90;81.60;;;;;;5047577;28;20339;-68
2021/03/19 02:32:28;;;;;;;5.38;1.77;;;1.90;81.60;;;;;;5049892;28;20048;-68
2021/03/19 02:35:10;;;;;;;5.30;2.22;;;1.80;81.80;;;;;;5043929;28;20549;-68
2021/03/19 02:37:38;;;;;;;5.50;2.55;;;1.80;81.90;;;;;;5051019;28;20040;-68
2021/03/19 02:40:06;;;;;;;4.68;1.98;;;1.80;82.10;;;;;;5049439;28;20108;-68
2021/03/19 02:42:32;;;;;;;3.92;2.40;;;1.80;82.30;;;;;;5050657;28;20025;-68
2021/03/19 02:44:59;;;;;;;3.95;2.10;;;1.70;82.10;;;;;;5050868;28;21087;-68
2021/03/19 02:47:25;;;;;;;3.50;1.95;;;1.70;82.60;;;;;;5051175;28;20029;-68
2021/03/19 02:49:50;;;;;;;3.38;1.90;;;1.70;82.20;;;;;;5051713;28;20116;-68
2021/03/19 02:52:19;;;;;;;3.75;2.40;;;1.70;82.30;;;;;;5051838;28;20130;-68
2021/03/19 02:54:45;;;;;;;2.53;1.77;;;1.70;82.20;;;;;;5051199;28;20029;-68
2021/03/19 02:57:10;;;;;;;3.58;1.95;;;1.70;82.30;;;;;;5050018;28;20353;-68
2021/03/19 02:59:36;;;;;;;4.65;2.00;;;1.70;82.40;;;;;;5051104;28;20036;-68
2021/03/19 03:02:02;;;;;;;4.65;2.05;;;1.70;82.30;;;;;;5051132;28;20491;-68
2021/03/19 03:04:27;;;;;;;4.65;2.25;;;1.70;82.10;;;;;;5050834;28;20044;-68
2021/03/19 03:06:55;;;;;;;4.07;2.13;;;1.70;82.20;;;;;;5050811;28;20040;-68
2021/03/19 03:09:27;;;;;;;4.55;2.50;;;1.70;82.40;;;;;;5052040;28;20021;-68
2021/03/19 03:11:53;;;;;;;3.58;2.03;;;1.70;82.70;;;;;;5051960;28;20116;-68
2021/03/19 03:14:22;;;;;;;4.28;2.08;;;1.60;82.70;;;;;;5050438;28;20386;-68
2021/03/19 03:16:48;;;;;;;4.50;2.03;;;1.60;83.10;;;;;;5051071;28;20025;-68
2021/03/19 03:19:18;;;;;;;6.65;2.55;;;1.60;83.40;;;;;;5051836;28;20059;-68
2021/03/19 03:21:44;;;;;;;4.65;2.05;;;1.60;83.60;;;;;;5050668;28;20040;-68
2021/03/19 03:24:11;;;;;;;5.07;2.35;;;1.60;83.70;;;;;;5051400;28;20037;-68
2021/03/19 03:26:37;;;;;;;5.85;2.15;;;1.60;83.90;;;;;;5049469;28;20029;-68
2021/03/19 03:29:05;;;;;;;4.70;2.08;;;1.60;83.90;;;;;;5051390;28;20040;-68
2021/03/19 03:31:31;;;;;;;6.38;2.42;;;1.50;83.70;;;;;;5048410;28;20570;-69
2021/03/19 03:33:57;;;;;;;5.63;2.05;;;1.50;84.00;;;;;;5051337;28;20040;-68
2021/03/19 03:36:24;;;;;;;6.72;2.58;;;1.60;83.90;;;;;;5045567;28;20033;-67
2021/03/19 03:38:50;;;;;;;4.47;2.50;;;1.50;83.60;;;;;;5047517;28;20036;-67
2021/03/19 03:41:22;;;;;;;5.53;2.72;;;1.60;83.90;;;;;;5050429;28;20795;-68
2021/03/19 03:43:48;;;;;;;4.22;2.45;;;1.50;83.70;;;;;;5050754;28;20032;-68
2021/03/19 03:46:20;;;;;;;6.82;2.42;;;1.60;84.00;;;;;;5048394;28;20033;-68
2021/03/19 03:48:46;;;;;;;6.22;2.70;;;1.50;84.20;;;;;;5050785;28;20047;-68
2021/03/19 03:51:12;;;;;;;7.22;2.50;;;1.50;84.10;;;;;;5050710;28;20560;-67
2021/03/19 03:53:40;;;;;;;6.00;2.92;;;1.50;84.30;;;;;;5050561;28;20045;-68
2021/03/19 03:56:09;;;;;;;5.28;2.90;;;1.50;84.40;;;;;;5050467;28;20040;-68
2021/03/19 03:58:35;;;;;;;8.43;4.35;;;1.40;84.90;;;;;;5049428;28;20150;-68
2021/03/19 04:01:01;;;;;;;7.15;2.92;;;1.50;84.80;;;;;;5049156;28;20124;-68
2021/03/19 04:03:27;;;;;;;5.32;2.55;;;1.40;84.80;;;;;;5050208;28;20086;-69
2021/03/19 04:05:53;;;;;;;6.47;3.08;;;1.40;84.50;;;;;;5050793;28;20029;-69
2021/03/19 04:08:21;;;;;;;6.15;3.22;;;1.40;84.60;;;;;;5050416;28;20033;-68
2021/03/19 04:10:48;;;;;;;5.38;2.95;;;1.40;84.50;;;;;;5049724;28;20017;-67
2021/03/19 04:13:15;;;;;;;8.50;3.28;;;1.40;84.50;;;;;;5050452;28;20041;-70
2021/03/19 04:15:42;;;;;;;8.63;3.72;;;1.40;84.70;;;;;;5049344;28;20044;-68
2021/03/19 04:18:12;;;;;;;4.82;3.08;;;1.40;85.00;;;;;;5047901;28;20021;-67
2021/03/19 04:20:39;;;;;;;9.70;3.10;;;1.40;85.40;;;;;;5049463;28;20486;-69
2021/03/19 04:23:06;;;;;;;7.15;3.55;;;1.40;85.20;;;;;;5050012;28;20021;-69
2021/03/19 04:25:32;;;;;;;7.22;3.40;;;1.40;85.20;;;;;;5049939;28;20368;-68
2021/03/19 04:28:01;;;;;;;7.38;3.65;;;1.40;85.20;;;;;;5045213;28;20031;-68
2021/03/19 04:30:40;;;;;;;4.95;3.53;;;1.40;85.70;;;;;;5049290;28;20041;-68
2021/03/19 04:33:08;;;;;;;5.00;3.28;;;1.40;85.80;;;;;;5042614;28;20041;-67
2021/03/19 04:35:34;;;;;;;7.85;3.85;;;1.40;85.60;;;;;;5049860;28;20572;-67
2021/03/19 04:38:05;;;;;;;8.00;3.90;;;1.30;85.90;;;;;;5049134;28;20028;-68
2021/03/19 04:40:31;;;;;;;8.13;3.58;;;1.40;86.00;;;;;;5048192;28;20021;-68
2021/03/19 04:42:58;;;;;;;7.45;3.80;;;1.40;86.00;;;;;;5050003;28;20086;-68
2021/03/19 04:45:24;;;;;;;7.82;4.30;;;1.40;86.10;;;;;;5047440;28;20036;-69
2021/03/19 04:47:53;;;;;;;7.90;4.53;;;1.40;86.20;;;;;;5047780;28;20418;-68
2021/03/19 04:50:19;;;;;;;7.15;3.92;;;1.40;86.10;;;;;;5048621;28;20028;-69
2021/03/19 04:52:45;;;;;;;7.40;4.05;;;1.40;86.10;;;;;;5049556;28;20120;-68
2021/03/19 04:55:11;;;;;;;7.20;3.83;;;1.40;86.30;;;;;;5049371;28;20220;-68
2021/03/19 04:57:37;;;;;;;8.00;3.55;;;1.40;86.20;;;;;;5050316;28;20029;-68
2021/03/19 05:00:07;;;;;;;6.93;3.72;;;1.40;86.30;;;;;;5049145;28;20027;-69
2021/03/19 05:02:43;;;;;;;7.28;3.92;;;1.40;86.40;;;;;;5047128;28;20027;-70
2021/03/19 05:05:21;;;;;;;7.75;3.90;;;1.30;86.50;;;;;;5048393;28;20040;-69
2021/03/19 05:07:47;;;;;;;6.28;3.67;;;1.30;86.90;;;;;;5045474;28;20029;-68
2021/03/19 05:10:18;;;;;;;7.70;4.53;;;1.30;87.40;;;;;;5049465;28;20037;-68
2021/03/19 05:12:44;;;;;;;7.32;3.40;;;1.30;87.20;;;;;;5049124;28;20031;-68
2021/03/19 05:15:10;;;;;;;9.13;4.25;;;1.30;87.30;;;;;;5048446;28;20033;-69
2021/03/19 05:17:36;;;;;;;7.10;3.92;;;1.30;87.30;;;;;;5047318;28;20041;-68
2021/03/19 05:20:08;;;;;;;9.48;3.90;;;1.30;87.50;;;;;;5049199;28;20029;-68
2021/03/19 05:22:33;;;;;;;7.75;3.97;;;1.30;87.20;;;;;;5048505;28;20083;-67
2021/03/19 05:24:59;;;;;;;8.32;4.50;;;1.30;87.20;;;;;;5049012;28;20029;-68
2021/03/19 05:27:26;;;;;;;10.57;4.53;;;1.30;87.30;;;;;;5048831;28;20032;-70
2021/03/19 05:29:55;;;;;;;6.40;3.70;;;1.20;87.40;;;;;;5048214;28;20056;-69
2021/03/19 05:32:22;;;;;;;7.25;3.95;;;1.30;87.40;;;;;;5047779;28;20495;-70
2021/03/19 05:34:48;;;;;;;9.45;4.53;;;1.30;87.40;;;;;;5047050;28;20025;-69
2021/03/19 05:37:14;;;;;;;8.25;4.80;;;1.30;87.50;;;;;;5048404;28;20046;-69
2021/03/19 05:39:40;;;;;;;11.30;4.55;;;1.30;87.70;;;;;;5047959;28;20263;-71
2021/03/19 05:42:24;;;;;;;10.48;4.80;;;1.30;87.70;;;;;;5048326;28;20033;-68
2021/03/19 05:44:58;;;;;;;7.32;4.75;;;1.30;87.60;;;;;;5047856;28;20037;-68
2021/03/19 05:47:24;;;;;;;9.30;6.35;;;1.40;87.70;;;;;;5048861;28;20035;-69
2021/03/19 05:49:55;;;;;;;10.18;4.68;;;1.40;88.00;;;;;;5047369;28;20128;-70
2021/03/19 05:52:28;;;;;;;9.65;5.18;;;1.40;88.10;;;;;;5047519;28;20025;-69
2021/03/19 05:54:56;;;;;;;10.13;5.53;;;1.40;88.10;;;;;;5048293;28;20427;-70
2021/03/19 05:57:31;;;;;;;8.80;4.68;;;1.40;88.40;;;;;;5048342;28;20040;-66
2021/03/19 05:59:58;;;;;;;7.05;4.82;;;1.40;88.20;;;;;;5047510;28;20025;-69
2021/03/19 06:02:37;;;;;;;10.15;4.78;;;1.50;88.20;;;;;;5044570;28;20018;-69
2021/03/19 06:05:13;;;;;;;8.35;5.18;;;1.50;88.10;;;;;;5043167;28;20477;-68
2021/03/19 06:07:48;;;;;;;8.27;4.65;;;1.50;88.40;;;;;;5046642;28;20178;-68
2021/03/19 06:10:36;;;;;;;11.82;5.07;;;1.50;88.40;;;;;;5048726;28;20036;-69
2021/03/19 06:13:14;;;;;;;10.75;5.40;;;1.50;88.30;;;;;;5047504;28;20071;-69
2021/03/19 06:15:43;;;;;;;7.03;5.22;;;1.50;88.60;;;;;;5047911;28;20067;-68
2021/03/19 06:18:44;;;;;;;9.20;5.32;;;1.60;88.90;;;;;;5043334;28;20489;-69
2021/03/19 06:21:10;;;;;;;7.38;4.93;;;1.60;88.90;;;;;;4989870;28;20029;-68
2021/03/19 06:23:38;;;;;;;10.50;5.28;;;1.60;88.90;;;;;;5047484;28;20028;-68
2021/03/19 06:26:06;;;;;;;12.25;5.53;;;1.60;88.80;;;;;;5050502;28;20110;-68
2021/03/19 06:28:37;;;;;;;11.75;5.18;;;1.60;89.00;;;;;;5046165;28;20025;-70
2021/03/19 06:31:19;;;;;;;9.40;5.18;;;1.60;88.90;;;;;;5047442;28;20038;-68
2021/03/19 06:33:45;;;;;;;9.70;5.05;;;1.60;88.90;;;;;;5047677;28;20040;-67
2021/03/19 06:36:21;;;;;;;9.23;5.40;;;1.70;88.70;;;;;;5048083;28;20141;-67
2021/03/19 06:38:51;;;;;;;10.55;5.28;;;1.70;88.80;;;;;;5042787;28;20052;-69
2021/03/19 06:41:21;;;;;;;10.57;5.13;;;1.70;88.70;;;;;;5045318;28;20040;-67
2021/03/19 06:43:48;;;;;;;8.40;5.05;;;1.70;88.70;;;;;;5051667;28;20036;-67
2021/03/19 06:46:40;;;;;;;9.43;5.40;;;1.70;88.80;;;;;;5052673;28;20029;-68
2021/03/19 06:49:07;;;;;;;10.98;5.32;;;1.70;88.90;;;;;;5044750;28;20039;-68
2021/03/19 06:51:44;;;;;;;9.02;5.28;;;1.70;88.90;;;;;;5051211;28;20460;-68
2021/03/19 06:54:53;;;;;;;9.70;4.90;;;1.80;88.90;;;;;;5051053;28;20032;-67
2021/03/19 06:57:20;;;;;;;9.30;5.18;;;1.80;88.80;;;;;;5023274;28;20052;-68
2021/03/19 07:00:00;;;;;;;10.32;5.43;;;1.70;88.90;;;;;;5051486;28;20029;-68
2021/03/19 07:02:52;;;;;;;10.27;5.25;;;1.70;89.20;;;;;;5051679;28;20028;-67
2021/03/19 07:05:39;;;;;;;9.00;5.82;;;1.80;89.60;;;;;;5052882;28;20474;-65
2021/03/19 07:08:17;;;;;;;12.75;5.95;;;1.80;89.80;;;;;;5033137;28;20116;-71
2021/03/19 07:11:26;;;;;;;11.85;5.85;;;1.90;89.90;;;;;;5048476;28;20108;-66
2021/03/19 07:14:03;;;;;;;10.73;5.88;;;2.00;89.90;;;;;;5015560;28;20487;-69
2021/03/19 07:17:03;;;;;;;10.02;6.32;;;2.10;89.80;;;;;;5050706;28;20447;-69
2021/03/19 07:19:47;;;;;;;9.30;5.55;;;2.10;89.60;;;;;;5049522;28;20031;-69
2021/03/19 07:22:34;;;;;;;12.35;6.00;;;2.10;89.80;;;;;;5051220;28;20039;-69
2021/03/19 07:25:11;;;;;;;10.52;5.57;;;2.20;89.80;;;;;;5042736;28;20961;-69
2021/03/19 07:28:11;;;;;;;13.20;6.03;;;2.20;90.00;;;;;;5047584;28;20035;-66
2021/03/19 07:31:13;;;;;;;12.70;6.07;;;2.30;90.00;;;;;;5051730;28;20025;-68
2021/03/19 07:34:17;;;;;;;10.48;5.60;;;2.30;90.00;;;;;;5051434;28;20025;-68
2021/03/19 07:37:11;;;;;;;19.67;8.30;;;2.40;90.00;;;;;;5047191;28;20557;-67
2021/03/19 07:40:08;;;;;;;15.13;6.55;;;2.50;90.00;;;;;;5043642;28;20048;-67
2021/03/19 07:42:52;;;;;;;11.27;6.05;;;2.60;90.00;;;;;;5050350;28;20053;-69
2021/03/19 07:46:11;;;;;;;12.18;5.95;;;2.60;90.00;;;;;;5049473;28;20159;-68
2021/03/19 07:49:09;;;;;;;9.85;5.85;;;2.60;90.00;;;;;;5048946;28;20025;-67
2021/03/19 07:51:37;;;;;;;9.80;5.57;;;2.60;90.00;;;;;;5019669;28;20037;-68
2021/03/19 07:54:30;;;;;;;16.27;7.30;;;2.60;90.00;;;;;;5049666;28;20036;-69
2021/03/19 07:57:08;;;;;;;10.55;5.47;;;2.70;90.30;;;;;;5049677;28;20041;-68
2021/03/19 07:59:40;;;;;;;13.68;6.18;;;2.80;90.10;;;;;;5051202;28;20490;-67
2021/03/19 08:02:12;;;;;;;12.48;5.63;;;2.90;90.20;;;;;;5050595;28;20036;-69
2021/03/19 08:05:05;;;;;;;12.07;5.80;;;3.00;90.10;;;;;;5049551;28;20036;-69
2021/03/19 08:07:44;;;;;;;10.25;5.20;;;3.10;90.20;;;;;;5048221;28;20025;-68
2021/03/19 08:10:22;;;;;;;10.40;5.40;;;3.30;90.00;;;;;;5048648;28;20025;-68
2021/03/19 08:13:03;;;;;;;10.05;4.43;;;3.40;89.30;;;;;;5051324;28;20460;-69
2021/03/19 08:15:48;;;;;;;;;;;3.50;88.50;;;;;;5051994;28;20037;-68
2021/03/19 08:18:30;;;;;;;10.77;4.57;;;3.60;88.40;;;;;;5050817;28;20003;-68
2021/03/19 08:21:08;;;;;;;9.18;4.93;;;3.70;88.10;;;;;;5051603;28;20043;-69
2021/03/19 08:23:51;;;;;;;6.35;4.10;;;3.80;87.40;;;;;;5048864;28;20024;-68
2021/03/19 08:26:26;;;;;;;9.75;4.10;;;3.80;86.90;;;;;;5047403;28;20033;-69
2021/03/19 08:29:04;;;;;;;9.30;4.13;;;3.80;86.60;;;;;;5049237;28;20124;-68
2021/03/19 08:31:46;;;;;;;10.82;4.20;;;3.90;86.80;;;;;;5046925;28;20029;-68
2021/03/19 08:34:29;;;;;;;9.77;4.50;;;4.00;86.30;;;;;;5049389;28;20378;-68
2021/03/19 08:36:54;;;;;;;8.68;4.45;;;4.00;85.70;;;;;;5043036;28;20032;-68
2021/03/19 08:39:43;;;;;;;7.55;4.25;;;4.00;85.90;;;;;;5050808;28;20033;-68
2021/03/19 08:42:27;;;;;;;5.70;3.55;;;4.00;86.10;;;;;;5047050;28;20021;-69
2021/03/19 08:44:53;;;;;;;7.45;4.03;;;4.10;85.50;;;;;;5049199;28;20025;-69
2021/03/19 08:47:35;;;;;;;6.30;3.63;;;4.00;85.00;;;;;;5048557;28;20029;-67
2021/03/19 08:50:11;;;;;;;8.07;3.38;;;4.00;85.10;;;;;;5049096;28;20083;-68
2021/03/19 08:52:41;;;;;;;6.68;3.65;;;3.90;85.70;;;;;;5048099;28;20040;-68
2021/03/19 08:55:13;;;;;;;5.63;3.28;;;4.00;86.20;;;;;;5048158;28;20031;-68
2021/03/19 08:57:43;;;;;;;6.45;3.35;;;4.00;85.60;;;;;;5049753;28;20112;-67
2021/03/19 09:00:21;;;;;;;4.45;2.90;;;4.10;85.30;;;;;;5047614;28;20421;-68
2021/03/19 09:02:56;;;;;;;7.00;3.67;;;4.20;84.90;;;;;;5048970;28;20051;-67
2021/03/19 09:05:28;;;;;;;7.20;2.90;;;4.20;84.60;;;;;;5048658;28;20025;-68
2021/03/19 09:08:15;;;;;;;5.60;3.10;;;4.30;83.50;;;;;;5050551;28;20495;-68
2021/03/19 09:10:41;;;;;;;5.45;2.53;;;4.40;82.50;;;;;;5047568;28;20029;-69
2021/03/19 09:13:16;;;;;;;7.05;2.50;;;4.40;82.10;;;;;;5050833;28;20386;-69
2021/03/19 09:15:44;;;;;;;7.32;2.40;;;4.40;81.20;;;;;;5049229;28;20039;-68
2021/03/19 09:18:38;;;;;;;4.60;2.00;;;4.50;80.90;;;;;;5049899;28;20020;-68
2021/03/19 09:21:29;;;;;;;4.50;1.95;;;4.50;80.50;;;;;;5043722;28;20944;-69
2021/03/19 09:24:01;;;;;;;3.50;1.70;;;4.50;80.60;;;;;;5050737;28;20025;-68
2021/03/19 09:26:56;;;;;;;3.08;1.67;;;4.60;80.50;;;;;;5048566;28;20594;-68
2021/03/19 09:29:42;;;;;;;4.22;1.73;;;4.60;80.90;;;;;;5047360;28;20032;-67
2021/03/19 09:32:30;;;;;;;5.57;2.00;;;4.70;80.30;;;;;;5048046;28;20040;-67
2021/03/19 09:34:59;;;;;;;3.88;1.50;;;4.70;78.90;;;;;;5050172;28;20032;-68
2021/03/19 09:37:31;;;;;;;4.38;1.55;;;4.90;78.90;;;;;;5047925;28;20033;-67
2021/03/19 09:39:56;;;;;;;2.55;1.40;;;4.90;77.60;;;;;;5050251;28;20029;-67
2021/03/19 09:42:22;;;;;;;3.83;1.65;;;5.00;76.60;;;;;;5053429;28;20368;-67
2021/03/19 09:45:00;;;;;;;2.80;1.65;;;5.00;76.80;;;;;;5049389;28;20060;-67
2021/03/19 09:47:37;;;;;;;2.45;1.33;;;4.90;76.70;;;;;;5048534;28;20029;-67
2021/03/19 09:50:24;;;;;;;3.13;1.50;;;4.90;76.40;;;;;;5048294;28;20029;-67
2021/03/19 09:53:00;;;;;;;4.05;1.42;;;5.00;76.50;;;;;;5048577;28;20433;-67
2021/03/19 09:55:44;;;;;;;5.30;1.38;;;5.10;76.70;;;;;;5048923;28;20098;-67
2021/03/19 09:58:47;;;;;;;4.43;1.40;;;5.20;75.60;;;;;;5041283;28;20036;-67
2021/03/19 10:01:42;;;;;;;3.45;1.02;;;5.30;74.70;;;;;;5044683;28;20029;-68
2021/03/19 10:04:12;;;;;;;1.98;0.80;;;5.30;74.10;;;;;;5042970;28;20029;-67
2021/03/19 10:06:46;;;;;;;3.05;1.25;;;5.40;73.30;;;;;;5045103;28;20036;-67
2021/03/19 10:09:27;;;;;;;1.80;1.20;;;5.40;73.60;;;;;;5046682;28;20033;-68
2021/03/19 10:11:55;;;;;;;2.50;0.93;;;5.30;73.80;;;;;;5047903;28;20427;-67
2021/03/19 10:14:28;;;;;;;1.65;0.98;;;5.50;73.60;;;;;;5048080;28;20037;-67
2021/03/19 10:17:05;;;;;;;2.15;0.90;;;5.60;72.00;;;;;;5049372;28;20064;-67
2021/03/19 10:19:38;;;;;;;3.38;1.00;;;5.60;72.30;;;;;;5053626;28;20017;-67
2021/03/19 10:22:05;;;;;;;2.25;0.98;;;5.60;71.90;;;;;;5053120;28;20033;-68
2021/03/19 10:24:31;;;;;;;2.83;0.85;;;5.60;72.30;;;;;;5047463;28;20044;-68
2021/03/19 10:27:02;;;;;;;1.77;0.65;;;5.60;72.20;;;;;;5051354;28;20505;-68
2021/03/19 10:29:36;;;;;;;1.87;0.70;;;5.60;71.60;;;;;;5057715;28;20040;-67
2021/03/19 10:32:18;;;;;;;1.10;0.60;;;5.60;71.30;;;;;;5051710;28;20279;-67
2021/03/19 10:35:06;;;;;;;3.53;0.73;;;5.60;71.60;;;;;;5051742;28;20025;-67
2021/03/19 10:37:38;;;;;;;1.63;0.60;;;5.70;71.30;;;;;;5046438;28;20152;-67
2021/03/19 10:40:20;;;;;;;0.88;0.65;;;5.90;70.00;;;;;;5051874;28;20054;-68
2021/03/19 10:43:01;;;;;;;0.75;0.40;;;6.00;68.20;;;;;;5049957;28;20983;-68
2021/03/19 10:45:48;;;;;;;0.60;0.40;;;5.90;67.70;;;;;;5053509;28;20020;-67
2021/03/19 10:48:29;;;;;;;1.58;0.50;;;6.00;65.70;;;;;;5048215;28;20434;-68
2021/03/19 10:51:15;;;;;;;1.30;0.70;;;6.00;66.60;;;;;;5043334;28;20028;-68
2021/03/19 10:54:03;;;;;;;1.98;0.65;;;6.10;66.60;;;;;;5050345;28;20971;-67
2021/03/19 10:56:29;;;;;;;0.93;0.47;;;6.00;67.10;;;;;;5049776;28;20032;-67
2021/03/19 10:59:20;;;;;;;1.42;0.68;;;6.10;68.10;;;;;;5046032;28;20032;-68
2021/03/19 11:01:48;;;;;;;2.75;1.30;;;6.00;69.10;;;;;;5048732;28;20028;-67
2021/03/19 11:04:30;;;;;;;3.10;0.82;;;6.20;68.90;;;;;;5049177;28;20495;-67
2021/03/19 11:07:15;;;;;;;3.28;1.13;;;6.20;69.50;;;;;;5050396;28;20363;-68
2021/03/19 11:10:04;;;;;;;1.88;0.70;;;6.40;68.90;;;;;;5051921;28;20059;-68
2021/03/19 11:12:34;;;;;;;3.47;0.88;;;6.50;65.00;;;;;;5051298;28;20029;-67
2021/03/19 11:15:03;;;;;;;2.58;1.17;;;6.40;65.60;;;;;;5050886;28;20033;-68
2021/03/19 11:17:29;;;;;;;2.78;0.80;;;6.30;66.90;;;;;;5050377;28;20435;-67
2021/03/19 11:19:57;;;;;;;2.53;0.80;;;6.20;67.80;;;;;;5039318;28;20111;-67
2021/03/19 11:22:23;;;;;;;1.75;0.68;;;6.20;67.70;;;;;;5051342;28;20124;-68
2021/03/19 11:24:49;;;;;;;2.47;0.60;;;6.00;68.10;;;;;;5050667;28;20537;-68
2021/03/19 11:27:23;;;;;;;4.80;0.60;;;6.10;67.90;;;;;;5051669;28;20033;-67
2021/03/19 11:30:10;;;;;;;2.00;0.60;;;6.20;67.00;;;;;;5035846;28;20025;-68
2021/03/19 11:32:36;;;;;;;2.10;0.70;;;6.20;67.50;;;;;;5050190;28;20033;-68
2021/03/19 11:35:20;;;;;;;1.60;0.60;;;6.30;65.90;;;;;;5049786;28;20108;-67
2021/03/19 11:37:46;;;;;;;1.40;0.50;;;6.30;65.20;;;;;;5048741;28;20039;-68
2021/03/19 11:40:22;;;;;;;3.35;1.00;;;6.10;65.00;;;;;;5049805;28;20384;-68
2021/03/19 11:42:53;;;;;;;1.30;0.75;;;6.00;65.80;;;;;;5048264;28;20603;-68
2021/03/19 11:45:19;;;;;;;;;;;5.80;66.30;;;;;;5046587;28;20021;-68
2021/03/19 11:47:48;;;;;;;2.95;1.00;;;5.80;67.30;;;;;;5048129;28;19958;-68
2021/03/19 11:50:20;;;;;;;3.33;0.90;;;5.80;68.40;;;;;;5051363;28;20471;-68
2021/03/19 11:52:46;;;;;;;2.78;0.77;;;5.80;68.10;;;;;;5053340;28;20048;-67
2021/03/19 11:55:19;;;;;;;4.82;1.30;;;5.80;67.50;;;;;;5036593;28;20052;-68
2021/03/19 11:57:44;;;;;;;3.53;1.17;;;5.80;67.60;;;;;;5049237;28;20051;-68
2021/03/19 12:00:11;;;;;;;2.70;1.20;;;5.90;66.40;;;;;;5050281;28;20021;-68
2021/03/19 12:02:42;;;;;;;2.65;1.02;;;5.70;67.40;;;;;;5049020;28;20024;-67
2021/03/19 12:05:11;;;;;;;2.33;1.13;;;5.80;68.10;;;;;;5050439;28;20029;-68
2021/03/19 12:07:37;;;;;;;3.08;1.13;;;6.00;67.10;;;;;;5050107;28;20067;-68
2021/03/19 12:10:05;;;;;;;3.22;1.52;;;6.10;66.40;;;;;;5050915;28;20052;-68
2021/03/19 12:12:31;;;;;;;2.33;0.95;;;6.30;64.80;;;;;;5050624;28;20495;-68
2021/03/19 12:14:58;;;;;;;2.75;0.90;;;6.40;62.80;;;;;;5051741;28;20041;-68
2021/03/19 12:17:24;;;;;;;3.05;0.95;;;6.40;63.60;;;;;;5050470;28;20029;-69
2021/03/19 12:19:51;;;;;;;3.83;1.10;;;6.50;63.40;;;;;;5055545;28;20052;-68
2021/03/19 12:22:17;;;;;;;3.22;1.10;;;6.50;62.60;;;;;;5047898;28;20028;-68
2021/03/19 12:24:44;;;;;;;5.78;1.23;;;6.30;64.40;;;;;;5049416;28;20032;-71
2021/03/19 12:27:11;;;;;;;4.78;1.30;;;6.20;65.30;;;;;;5050056;28;20474;-68
2021/03/19 12:29:37;;;;;;;2.70;1.10;;;6.20;65.20;;;;;;5049747;28;20115;-69
2021/03/19 12:32:03;;;;;;;7.97;1.45;;;6.20;65.90;;;;;;5048955;28;20130;-69
2021/03/19 12:34:29;;;;;;;2.50;1.10;;;6.30;65.50;;;;;;5049040;28;20437;-70
2021/03/19 12:36:55;;;;;;;5.40;1.20;;;6.60;63.70;;;;;;5048709;28;20039;-68
2021/03/19 12:39:21;;;;;;;2.75;1.20;;;6.50;64.40;;;;;;5048155;28;20021;-74
2021/03/19 12:41:48;;;;;;;2.03;0.88;;;6.60;62.70;;;;;;5049650;28;20021;-69
2021/03/19 12:44:15;;;;;;;2.80;1.08;;;6.70;62.10;;;;;;5049427;28;20029;-68
2021/03/19 12:46:41;;;;;;;3.88;1.40;;;6.70;62.30;;;;;;5046760;28;20094;-69
2021/03/19 12:49:07;;;;;;;5.88;1.77;;;6.70;62.50;;;;;;5049414;28;20378;-69
2021/03/19 12:51:34;;;;;;;2.47;1.02;;;6.80;61.90;;;;;;5050379;28;20032;-69
2021/03/19 12:54:00;;;;;;;2.50;0.90;;;6.80;61.30;;;;;;5050054;28;20052;-69
2021/03/19 12:56:26;;;;;;;2.67;1.30;;;6.70;61.20;;;;;;5040911;28;20044;-69
2021/03/19 12:58:52;;;;;;;4.90;1.20;;;6.70;61.70;;;;;;5051201;28;20037;-69
2021/03/19 13:01:19;;;;;;;2.83;0.95;;;6.60;62.20;;;;;;5049704;28;20025;-69
2021/03/19 13:03:46;;;;;;;2.17;0.90;;;6.70;61.30;;;;;;5048052;28;20395;-68
2021/03/19 13:06:12;;;;;;;6.47;1.10;;;6.70;61.40;;;;;;5048906;28;20139;-68
2021/03/19 13:08:37;;;;;;;1.63;0.88;;;6.70;62.00;;;;;;5036775;28;20029;-69
2021/03/19 13:11:03;;;;;;;1.83;1.05;;;6.60;62.20;;;;;;5048312;28;20036;-68
2021/03/19 13:13:30;;;;;;;3.53;1.15;;;6.50;63.30;;;;;;5048393;28;20036;-69
2021/03/19 13:15:56;;;;;;;3.90;1.20;;;6.40;63.40;;;;;;5048827;28;20402;-69
2021/03/19 13:18:22;;;;;;;2.78;1.02;;;6.40;63.10;;;;;;5046297;28;20342;-69
2021/03/19 13:20:50;;;;;;;3.17;1.00;;;6.50;63.60;;;;;;5048677;28;20039;-68
2021/03/19 13:23:16;;;;;;;3.63;1.13;;;6.50;62.60;;;;;;5036853;28;20055;-68
2021/03/19 13:25:42;;;;;;;2.97;1.17;;;6.40;62.70;;;;;;5042114;28;20483;-68
2021/03/19 13:28:10;;;;;;;206.88;82.22;;;6.30;63.10;;;;;;5040850;28;20494;-70
2021/03/19 13:30:36;;;;;;;54.42;24.35;;;6.30;63.40;;;;;;5044943;28;20091;-68